Macurure, Brazil
Current Conditions -  °F | °C
As of 6:00 PM on Friday 19 Dec 2014 (Local Time) from SBUF Reporting Station
Broken Clouds Broken Clouds  
Wind Chill: 90°   Ceiling: 8000
Heat Index: 92°   Visibility: 6mi
Dew Point: 66°   Wind: 10mph
Humidity: 46%   Direction: 120°ESE
Pressure: 29.83"   Gusts: NA
Location:  9.17°S, 39.06°W
Report Text: SBUF 192100Z 12009KT 9999 FEW020 BKN080 32/19 Q1010
Loading
Personal Weather Stations






























Interactive Weather Map New forecast layout! Learn more

10-Day Weather Forecast

Advertisements
Track Severe Weather on mobile